createdAt,value
2018-01-10T00:00:13.731Z,9.90
2018-01-10T00:02:41.245Z,8.60
2018-01-10T00:05:08.714Z,8.87
2018-01-10T00:07:36.212Z,9.40
2018-01-10T00:10:04.479Z,9.17
2018-01-10T00:12:32.850Z,10.10
2018-01-10T00:15:00.365Z,9.03
2018-01-10T00:17:27.880Z,10.23
2018-01-10T00:19:55.395Z,9.00
2018-01-10T00:22:22.869Z,10.17
2018-01-10T00:24:50.381Z,8.97
2018-01-10T00:27:17.822Z,9.10
2018-01-10T00:29:45.334Z,8.67
2018-01-10T00:32:12.847Z,8.10
2018-01-10T00:34:40.339Z,9.67
2018-01-10T00:37:07.811Z,9.40
2018-01-10T00:39:35.239Z,8.87
2018-01-10T00:42:02.772Z,9.97
2018-01-10T00:44:30.509Z,26.57
2018-01-10T00:46:58.001Z,12.43
2018-01-10T00:49:25.503Z,9.00
2018-01-10T00:51:52.999Z,9.30
2018-01-10T00:54:20.624Z,10.10
2018-01-10T00:56:48.109Z,9.03
2018-01-10T00:59:16.377Z,8.97
2018-01-10T01:01:43.895Z,8.90
2018-01-10T01:04:12.106Z,8.73
2018-01-10T01:06:39.621Z,8.97
2018-01-10T01:09:07.124Z,9.40
2018-01-10T01:11:34.647Z,9.40
2018-01-10T01:14:02.178Z,8.20
2018-01-10T01:16:29.684Z,8.77
2018-01-10T01:18:57.190Z,8.33
2018-01-10T01:21:24.674Z,9.50
2018-01-10T01:23:52.928Z,9.37
2018-01-10T01:26:20.438Z,9.50
2018-01-10T01:28:47.909Z,8.67
2018-01-10T01:31:15.373Z,8.80
2018-01-10T01:33:42.915Z,8.33
2018-01-10T01:36:11.221Z,8.73
2018-01-10T01:38:38.705Z,9.00
2018-01-10T01:41:06.213Z,9.77
2018-01-10T01:43:34.484Z,9.80
2018-01-10T01:46:01.976Z,9.07
2018-01-10T01:48:29.479Z,9.00
2018-01-10T01:50:56.982Z,9.30
2018-01-10T01:53:25.242Z,8.80
2018-01-10T01:55:53.578Z,10.00
2018-01-10T01:58:21.077Z,8.53
2018-01-10T02:00:48.610Z,9.50
2018-01-10T02:03:16.082Z,9.17
2018-01-10T02:05:43.596Z,9.67
2018-01-10T02:08:11.918Z,8.30
2018-01-10T02:10:39.422Z,9.03
2018-01-10T02:13:06.943Z,8.93
2018-01-10T02:15:34.422Z,8.17
2018-01-10T02:18:03.267Z,10.47
2018-01-10T02:20:31.518Z,8.70
2018-01-10T02:22:59.019Z,9.50
2018-01-10T02:25:27.297Z,8.90
2018-01-10T02:27:55.567Z,9.57
2018-01-10T02:30:23.865Z,8.30
2018-01-10T02:32:51.305Z,10.50
2018-01-10T02:35:19.551Z,8.90
2018-01-10T02:37:47.139Z,10.00
2018-01-10T02:40:14.580Z,8.93
2018-01-10T02:42:42.085Z,9.00
2018-01-10T02:45:10.455Z,9.00
2018-01-10T02:47:38.694Z,8.17
2018-01-10T02:50:06.160Z,8.47
2018-01-10T02:52:33.679Z,8.17
2018-01-10T02:55:01.988Z,9.10
2018-01-10T02:57:29.456Z,9.10
2018-01-10T02:59:56.954Z,9.17
2018-01-10T03:02:24.473Z,9.20
2018-01-10T03:04:52.154Z,9.17
2018-01-10T03:07:19.631Z,8.73
2018-01-10T03:09:47.118Z,9.10
2018-01-10T03:12:15.403Z,8.00
2018-01-10T03:14:42.862Z,7.47
2018-01-10T03:17:11.094Z,8.20
2018-01-10T03:19:38.590Z,8.10
2018-01-10T03:22:06.104Z,7.57
2018-01-10T03:24:33.595Z,9.47
2018-01-10T03:27:01.078Z,8.20
2018-01-10T03:29:28.582Z,9.03
2018-01-10T03:31:56.088Z,7.60
2018-01-10T03:34:23.547Z,8.27
2018-01-10T03:36:51.183Z,7.87
2018-01-10T03:39:18.778Z,8.60
2018-01-10T03:41:46.377Z,7.87
2018-01-10T03:44:13.868Z,8.30
2018-01-10T03:46:41.363Z,8.03
2018-01-10T03:49:08.868Z,7.23
2018-01-10T03:51:36.312Z,7.73
2018-01-10T03:54:03.811Z,7.37
2018-01-10T03:56:32.052Z,8.00
2018-01-10T03:58:59.553Z,8.30
2018-01-10T04:01:27.003Z,7.33
2018-01-10T04:03:55.280Z,6.97
2018-01-10T04:06:22.769Z,9.17
2018-01-10T04:08:51.023Z,8.10
2018-01-10T04:11:18.482Z,8.47
2018-01-10T04:13:46.029Z,8.93
2018-01-10T04:16:13.465Z,8.33
2018-01-10T04:18:40.974Z,7.83
2018-01-10T04:21:08.467Z,8.13
2018-01-10T04:23:35.976Z,8.17
2018-01-10T04:26:03.475Z,8.00
2018-01-10T04:28:30.958Z,6.97
2018-01-10T04:30:58.429Z,7.77
2018-01-10T04:33:25.949Z,6.90
2018-01-10T04:35:53.431Z,7.50
2018-01-10T04:38:21.713Z,7.23
2018-01-10T04:40:49.943Z,7.17
2018-01-10T04:43:17.474Z,6.83
2018-01-10T04:45:44.934Z,7.67
2018-01-10T04:48:12.414Z,7.90
2018-01-10T04:50:39.913Z,7.73
2018-01-10T04:53:07.380Z,7.23
2018-01-10T04:55:34.894Z,7.23
2018-01-10T04:58:02.399Z,7.13
2018-01-10T05:00:29.892Z,7.40
2018-01-10T05:02:58.155Z,7.43
2018-01-10T05:05:25.637Z,7.40
2018-01-10T05:07:53.892Z,7.30
2018-01-10T05:10:21.371Z,6.80
2018-01-10T05:12:48.890Z,6.90
2018-01-10T05:15:16.404Z,6.30
2018-01-10T05:17:44.662Z,6.40
2018-01-10T05:20:12.149Z,7.43
2018-01-10T05:22:40.408Z,7.10
2018-01-10T05:25:07.950Z,6.67
2018-01-10T05:27:35.429Z,5.33
2018-01-10T05:30:02.964Z,7.53
2018-01-10T05:32:30.391Z,6.50
2018-01-10T05:34:58.659Z,6.87
2018-01-10T05:37:26.929Z,6.47
2018-01-10T05:39:54.452Z,6.40
2018-01-10T05:42:21.941Z,7.10
2018-01-10T05:44:49.467Z,6.57
2018-01-10T05:47:16.964Z,6.40
2018-01-10T05:49:44.414Z,6.53
2018-01-10T05:52:11.917Z,6.57
2018-01-10T05:54:40.151Z,6.17
2018-01-10T05:57:07.638Z,8.00
2018-01-10T05:59:35.150Z,7.03
2018-01-10T06:02:02.649Z,7.10
2018-01-10T06:04:30.147Z,8.10
2018-01-10T06:06:58.469Z,6.70
2018-01-10T06:09:25.889Z,6.90
2018-01-10T06:11:54.158Z,7.10
2018-01-10T06:14:21.610Z,7.10
2018-01-10T06:16:49.096Z,7.27
2018-01-10T06:19:17.492Z,6.73
2018-01-10T06:21:45.738Z,7.60
2018-01-10T06:24:13.238Z,6.37
2018-01-10T06:26:40.720Z,6.53
2018-01-10T06:29:08.236Z,6.53
2018-01-10T06:31:36.426Z,7.20
2018-01-10T06:34:04.852Z,6.77
2018-01-10T06:36:34.125Z,7.83
2018-01-10T06:39:01.899Z,6.57
2018-01-10T06:41:29.395Z,7.60
2018-01-10T06:43:56.878Z,7.50
2018-01-10T06:46:24.403Z,6.30
2018-01-10T06:48:51.886Z,6.80
2018-01-10T06:51:19.382Z,7.03
2018-01-10T06:53:46.968Z,6.10
2018-01-10T06:56:14.381Z,6.87
2018-01-10T06:58:41.871Z,5.57
2018-01-10T07:01:09.361Z,6.67
2018-01-10T07:03:37.589Z,5.87
2018-01-10T07:06:05.238Z,5.70
2018-01-10T07:08:32.930Z,7.70
2018-01-10T07:11:01.139Z,5.97
2018-01-10T07:13:28.688Z,6.50
2018-01-10T07:15:56.216Z,5.17
2018-01-10T07:18:23.734Z,6.00
2018-01-10T07:20:52.011Z,5.97
2018-01-10T07:23:19.466Z,6.30
2018-01-10T07:25:46.939Z,6.40
2018-01-10T07:28:15.596Z,5.63
2018-01-10T07:30:43.269Z,6.53
2018-01-10T07:33:10.722Z,6.00
2018-01-10T07:35:38.213Z,6.33
2018-01-10T07:38:05.662Z,6.47
2018-01-10T07:40:33.134Z,5.93
2018-01-10T07:43:00.624Z,5.10
2018-01-10T07:45:28.883Z,5.73
2018-01-10T07:47:56.328Z,6.03
2018-01-10T07:50:23.851Z,5.30
2018-01-10T07:52:52.073Z,5.43
2018-01-10T07:55:19.578Z,5.07
2018-01-10T07:57:47.109Z,6.60
2018-01-10T08:00:14.591Z,6.90
2018-01-10T08:02:42.886Z,6.20
2018-01-10T08:05:10.409Z,6.37
2018-01-10T08:07:37.848Z,6.50
2018-01-10T08:10:05.346Z,5.93
2018-01-10T08:12:32.839Z,6.57
2018-01-10T08:15:00.328Z,6.70
2018-01-10T08:17:27.815Z,6.80
2018-01-10T08:19:55.244Z,5.60
2018-01-10T08:22:22.706Z,5.73
2018-01-10T08:24:50.167Z,5.57
2018-01-10T08:27:17.643Z,5.53
2018-01-10T08:29:45.108Z,5.20
2018-01-10T08:32:12.622Z,5.30
2018-01-10T08:34:40.858Z,6.70
2018-01-10T08:37:08.325Z,6.40
2018-01-10T08:39:35.806Z,7.23
2018-01-10T08:42:03.302Z,6.50
2018-01-10T08:44:30.762Z,5.73
2018-01-10T08:46:58.203Z,6.10
2018-01-10T08:49:25.673Z,7.17
2018-01-10T08:51:54.101Z,6.27
2018-01-10T08:54:21.581Z,5.63
2018-01-10T08:56:49.022Z,6.77
2018-01-10T08:59:16.508Z,6.10
2018-01-10T09:01:43.989Z,5.80
2018-01-10T09:04:11.555Z,5.70
2018-01-10T09:06:39.730Z,5.70
2018-01-10T09:09:07.203Z,5.10
2018-01-10T09:11:35.469Z,5.90
2018-01-10T09:14:02.931Z,6.17
2018-01-10T09:16:30.465Z,5.60
2018-01-10T09:18:57.965Z,6.40
2018-01-10T09:21:25.721Z,5.53
2018-01-10T09:23:53.244Z,5.63
2018-01-10T09:26:20.751Z,5.50
2018-01-10T09:28:48.173Z,5.10
2018-01-10T09:31:15.683Z,6.03
2018-01-10T09:33:43.123Z,6.77
2018-01-10T09:36:10.948Z,6.47
2018-01-10T09:38:39.218Z,4.97
2018-01-10T09:41:07.452Z,5.03
2018-01-10T09:43:34.967Z,4.80
2018-01-10T09:46:03.235Z,5.20
2018-01-10T09:48:30.717Z,4.40
2018-01-10T09:50:58.973Z,4.50
2018-01-10T09:53:26.452Z,4.27
2018-01-10T09:55:54.688Z,4.53
2018-01-10T09:58:22.330Z,4.03
2018-01-10T10:00:49.777Z,2.37
2018-01-10T10:03:17.284Z,1.83
2018-01-10T10:05:48.010Z,1.90
2018-01-10T10:08:15.643Z,1.90
2018-01-10T10:10:43.144Z,2.00
2018-01-10T10:13:10.633Z,2.50
2018-01-10T10:15:38.119Z,1.90
2018-01-10T10:18:07.064Z,2.17
2018-01-10T10:20:34.618Z,1.80
2018-01-10T10:23:02.102Z,2.03
2018-01-10T10:25:29.600Z,1.80
2018-01-10T10:27:57.071Z,2.63
2018-01-10T10:30:24.598Z,1.87
2018-01-10T10:32:52.089Z,2.23
2018-01-10T10:35:19.567Z,2.40
2018-01-10T10:37:46.998Z,2.47
2018-01-10T10:40:14.546Z,2.07
2018-01-10T10:42:42.051Z,2.00
2018-01-10T10:45:09.510Z,1.50
2018-01-10T10:47:36.995Z,1.90
2018-01-10T10:50:04.606Z,1.43
2018-01-10T10:52:32.786Z,2.23
2018-01-10T10:55:00.244Z,1.57
2018-01-10T10:57:27.755Z,1.60
2018-01-10T10:59:55.269Z,1.90
2018-01-10T11:02:23.553Z,2.13
2018-01-10T11:04:51.021Z,1.90
2018-01-10T11:07:18.646Z,1.80
2018-01-10T11:09:46.174Z,2.20
2018-01-10T11:12:14.425Z,2.07
2018-01-10T11:14:41.939Z,1.70
2018-01-10T11:17:09.469Z,2.50
2018-01-10T11:19:36.948Z,1.97
2018-01-10T11:22:05.288Z,2.40
2018-01-10T11:24:32.797Z,2.30
2018-01-10T11:27:00.297Z,2.20
2018-01-10T11:29:28.562Z,2.10
2018-01-10T11:31:56.086Z,3.60
2018-01-10T11:34:24.415Z,2.40
2018-01-10T11:36:52.015Z,2.30
2018-01-10T11:39:19.496Z,2.30
2018-01-10T11:41:47.349Z,2.10
2018-01-10T11:44:14.863Z,1.83
2018-01-10T11:46:42.350Z,2.20
2018-01-10T11:49:09.961Z,3.17
2018-01-10T11:51:37.466Z,2.70
2018-01-10T11:54:05.783Z,2.63
2018-01-10T11:56:35.574Z,3.20
2018-01-10T11:59:03.081Z,2.43
2018-01-10T12:01:31.391Z,2.10
2018-01-10T12:03:58.877Z,2.43
2018-01-10T12:06:26.425Z,2.03
2018-01-10T12:08:54.741Z,2.00
2018-01-10T12:11:22.182Z,2.00
2018-01-10T12:13:49.635Z,2.23
2018-01-10T12:16:17.132Z,1.83
2018-01-10T12:18:44.616Z,1.90
2018-01-10T12:21:12.188Z,1.77
2018-01-10T12:23:39.583Z,2.40
2018-01-10T12:26:07.083Z,2.10
2018-01-10T12:28:34.553Z,1.80
2018-01-10T12:31:02.131Z,2.40
2018-01-10T12:33:29.689Z,1.50
2018-01-10T12:35:57.183Z,2.00
2018-01-10T12:38:24.896Z,1.70
2018-01-10T12:40:52.441Z,1.60
2018-01-10T12:43:19.967Z,2.00
2018-01-10T12:45:48.272Z,1.60
2018-01-10T12:48:16.590Z,2.57
2018-01-10T12:50:44.099Z,2.20
2018-01-10T12:53:11.491Z,1.93
2018-01-10T12:55:39.338Z,2.50
2018-01-10T12:58:06.812Z,2.33
2018-01-10T13:00:34.322Z,1.90
2018-01-10T13:03:01.950Z,2.00
2018-01-10T13:05:29.842Z,2.47
2018-01-10T13:07:57.275Z,2.50
2018-01-10T13:10:24.784Z,2.40
2018-01-10T13:12:52.277Z,2.70
2018-01-10T13:15:20.488Z,2.27
2018-01-10T13:17:48.003Z,2.20
2018-01-10T13:20:15.530Z,2.00
2018-01-10T13:22:42.972Z,1.67
2018-01-10T13:25:10.443Z,1.47
2018-01-10T13:27:37.941Z,1.53
2018-01-10T13:30:05.403Z,1.70
2018-01-10T13:32:32.892Z,2.23
2018-01-10T13:35:00.615Z,1.80
2018-01-10T13:37:28.150Z,2.23
2018-01-10T13:39:55.655Z,2.30
2018-01-10T13:42:23.146Z,1.70
2018-01-10T13:44:50.670Z,1.80
2018-01-10T13:47:18.878Z,6.50
2018-01-10T13:49:46.383Z,3.00
2018-01-10T13:52:13.909Z,2.23
2018-01-10T13:54:41.360Z,2.50
2018-01-10T13:57:08.891Z,2.30
2018-01-10T13:59:36.354Z,2.20
2018-01-10T14:02:03.852Z,2.30
2018-01-10T14:04:31.403Z,1.73
2018-01-10T14:06:58.926Z,2.20
2018-01-10T14:09:26.349Z,2.40
2018-01-10T14:11:54.285Z,2.53
2018-01-10T14:14:21.797Z,2.33
2018-01-10T14:16:49.206Z,1.97
2018-01-10T14:19:16.726Z,2.20
2018-01-10T14:21:45.030Z,2.10
2018-01-10T14:24:12.647Z,2.00
2018-01-10T14:26:40.926Z,1.87
2018-01-10T14:29:09.121Z,2.20
2018-01-10T14:31:36.574Z,2.30
2018-01-10T14:34:04.126Z,2.00
2018-01-10T14:36:31.614Z,2.00
2018-01-10T14:38:59.866Z,2.10
2018-01-10T14:41:27.404Z,2.37
2018-01-10T14:43:54.902Z,2.60
2018-01-10T14:46:22.389Z,3.53
2018-01-10T14:48:49.842Z,3.00
2018-01-10T14:51:17.291Z,3.23
2018-01-10T14:53:44.777Z,3.40
2018-01-10T14:56:13.032Z,2.93
2018-01-10T14:58:40.525Z,2.90
2018-01-10T15:01:08.804Z,2.23
2018-01-10T15:03:36.252Z,3.00
2018-01-10T15:06:03.764Z,2.60
2018-01-10T15:08:31.269Z,3.10
2018-01-10T15:10:58.784Z,3.20
2018-01-10T15:13:26.281Z,2.90
2018-01-10T15:15:53.805Z,3.33
2018-01-10T15:18:22.038Z,3.33
2018-01-10T15:20:49.510Z,3.47
2018-01-10T15:23:17.012Z,3.17
2018-01-10T15:25:44.467Z,2.67
2018-01-10T15:28:11.915Z,2.80
2018-01-10T15:30:40.205Z,2.73
2018-01-10T15:33:08.451Z,2.63
2018-01-10T15:35:35.880Z,2.67
2018-01-10T15:38:03.445Z,2.80
2018-01-10T15:40:31.671Z,2.97
2018-01-10T15:42:59.127Z,2.97
2018-01-10T15:45:26.664Z,3.20
2018-01-10T15:47:54.128Z,3.10
2018-01-10T15:50:21.641Z,3.20
2018-01-10T15:52:49.948Z,3.53
2018-01-10T15:55:17.420Z,2.90
2018-01-10T15:57:44.929Z,3.87
2018-01-10T16:00:12.458Z,2.80
2018-01-10T16:02:39.935Z,2.40
2018-01-10T16:05:07.441Z,2.27
2018-01-10T16:07:34.936Z,2.77
2018-01-10T16:10:03.161Z,2.87
2018-01-10T16:12:30.686Z,3.03
2018-01-10T16:14:58.124Z,3.00
2018-01-10T16:17:25.646Z,2.70
2018-01-10T16:19:53.100Z,4.10
2018-01-10T16:22:20.588Z,3.87
2018-01-10T16:24:48.849Z,3.77
2018-01-10T16:27:16.321Z,2.80
2018-01-10T16:29:43.795Z,3.20
2018-01-10T16:32:12.032Z,3.23
2018-01-10T16:34:39.539Z,3.13
2018-01-10T16:37:06.980Z,2.80
2018-01-10T16:39:35.217Z,2.80
2018-01-10T16:42:02.725Z,3.70
2018-01-10T16:44:30.191Z,3.23
2018-01-10T16:46:57.642Z,3.17
2018-01-10T16:49:25.104Z,3.10
2018-01-10T16:51:52.635Z,3.07
2018-01-10T16:54:20.127Z,2.97
2018-01-10T16:56:47.550Z,3.73
2018-01-10T16:59:15.041Z,2.70
2018-01-10T17:01:42.528Z,3.30
2018-01-10T17:04:10.031Z,3.60
2018-01-10T17:06:38.584Z,3.10
2018-01-10T17:09:06.051Z,2.90
2018-01-10T17:11:34.309Z,3.17
2018-01-10T17:14:01.837Z,4.10
2018-01-10T17:16:29.291Z,3.90
2018-01-10T17:18:56.800Z,4.20
2018-01-10T17:21:24.265Z,3.87
2018-01-10T17:23:51.781Z,3.53
2018-01-10T17:26:19.236Z,3.77
2018-01-10T17:28:46.758Z,3.87
2018-01-10T17:31:14.274Z,4.23
2018-01-10T17:33:41.740Z,3.87
2018-01-10T17:36:10.088Z,4.30
2018-01-10T17:38:37.535Z,4.10
2018-01-10T17:41:05.812Z,4.30
2018-01-10T17:43:33.275Z,3.60
2018-01-10T17:46:00.783Z,3.60
2018-01-10T17:48:28.270Z,3.47
2018-01-10T17:50:55.749Z,2.97
2018-01-10T17:53:23.260Z,3.43
2018-01-10T17:55:51.435Z,3.77
2018-01-10T17:58:18.940Z,3.80
2018-01-10T18:00:46.460Z,3.37
2018-01-10T18:03:13.941Z,4.37
2018-01-10T18:05:41.396Z,4.03
2018-01-10T18:08:08.900Z,3.33
2018-01-10T18:10:36.464Z,4.10
2018-01-10T18:13:03.951Z,4.53
2018-01-10T18:15:31.451Z,5.37
2018-01-10T18:17:59.743Z,5.07
2018-01-10T18:20:27.183Z,4.53
2018-01-10T18:22:54.680Z,5.30
2018-01-10T18:25:22.232Z,3.90
2018-01-10T18:27:49.734Z,3.47
2018-01-10T18:30:17.148Z,3.60
2018-01-10T18:32:44.651Z,3.83
2018-01-10T18:35:12.118Z,3.97
2018-01-10T18:37:39.642Z,3.40
2018-01-10T18:40:07.975Z,3.53
2018-01-10T18:42:35.464Z,4.20
2018-01-10T18:45:03.135Z,3.80
2018-01-10T18:47:30.572Z,4.57
2018-01-10T18:49:58.069Z,4.80
2018-01-10T18:52:25.615Z,5.67
2018-01-10T18:54:53.044Z,4.70
2018-01-10T18:57:20.562Z,5.53
2018-01-10T18:59:48.081Z,5.00
2018-01-10T19:02:15.592Z,5.53
2018-01-10T19:04:43.101Z,5.27
2018-01-10T19:07:10.550Z,4.40
2018-01-10T19:09:38.056Z,4.23
2018-01-10T19:12:06.331Z,5.13
2018-01-10T19:14:34.592Z,5.60
2018-01-10T19:17:02.179Z,5.60
2018-01-10T19:19:29.586Z,4.83
2018-01-10T19:21:57.098Z,5.97
2018-01-10T19:24:25.362Z,8.03
2018-01-10T19:26:52.949Z,8.93
2018-01-10T19:29:20.418Z,8.47
2018-01-10T19:31:48.085Z,8.10
2018-01-10T19:34:15.649Z,7.53
2018-01-10T19:36:43.105Z,9.83
2018-01-10T19:39:11.424Z,11.67
2018-01-10T19:41:38.891Z,11.10
2018-01-10T19:44:06.425Z,10.10
2018-01-10T19:46:34.657Z,13.23
2018-01-10T19:49:02.144Z,12.67
2018-01-10T19:51:29.715Z,11.23
2018-01-10T19:53:57.142Z,11.73
2018-01-10T19:56:24.635Z,12.80
2018-01-10T19:58:52.920Z,10.10
2018-01-10T20:01:21.159Z,10.10
2018-01-10T20:03:48.592Z,8.87
2018-01-10T20:06:16.857Z,9.70
2018-01-10T20:08:44.364Z,9.30
2018-01-10T20:11:11.869Z,7.50
2018-01-10T20:13:40.141Z,12.27
2018-01-10T20:16:07.637Z,24.57
2018-01-10T20:18:35.125Z,26.37
2018-01-10T20:21:02.593Z,23.30
2018-01-10T20:23:30.118Z,14.37
2018-01-10T20:25:57.616Z,10.13
2018-01-10T20:28:25.088Z,9.57
2018-01-10T20:30:52.592Z,11.93
2018-01-10T20:33:20.854Z,11.00
2018-01-10T20:35:48.357Z,12.00
2018-01-10T20:38:15.890Z,12.30
2018-01-10T20:40:43.716Z,14.60
2018-01-10T20:43:11.187Z,16.10
2018-01-10T20:45:38.666Z,15.83
2018-01-10T20:48:06.199Z,16.07
2018-01-10T20:50:33.658Z,16.80
2018-01-10T20:53:01.148Z,15.27
2018-01-10T20:55:28.648Z,13.20
2018-01-10T20:57:56.967Z,10.43
2018-01-10T21:00:25.158Z,10.40
2018-01-10T21:02:52.649Z,13.33
2018-01-10T21:05:20.270Z,11.33
2018-01-10T21:07:47.991Z,9.97
2018-01-10T21:10:15.662Z,10.60
2018-01-10T21:12:43.193Z,10.67
2018-01-10T21:15:10.649Z,11.00
2018-01-10T21:17:38.206Z,11.03
2018-01-10T21:20:05.672Z,10.70
2018-01-10T21:22:33.182Z,10.87
2018-01-10T21:25:01.431Z,10.20
2018-01-10T21:27:28.930Z,9.40
2018-01-10T21:29:57.238Z,11.27
2018-01-10T21:32:24.724Z,13.00
2018-01-10T21:34:52.253Z,11.93
2018-01-10T21:37:20.545Z,10.13
2018-01-10T21:39:48.805Z,8.30
2018-01-10T21:42:17.097Z,8.10
2018-01-10T21:44:45.528Z,8.73
2018-01-10T21:47:13.042Z,10.60
2018-01-10T21:49:40.549Z,10.33
2018-01-10T21:52:08.056Z,9.30
2018-01-10T21:54:36.307Z,8.40
2018-01-10T21:57:03.804Z,9.50
2018-01-10T21:59:32.135Z,10.60
2018-01-10T22:01:59.528Z,11.40
2018-01-10T22:04:27.028Z,11.70
2018-01-10T22:06:54.645Z,11.10
2018-01-10T22:09:22.064Z,11.30
2018-01-10T22:11:49.587Z,11.03
2018-01-10T22:14:17.857Z,10.07
2018-01-10T22:16:45.394Z,10.07
2018-01-10T22:19:12.878Z,9.10
2018-01-10T22:21:40.363Z,9.20
2018-01-10T22:24:08.619Z,8.50
2018-01-10T22:26:36.082Z,9.77
2018-01-10T22:29:03.575Z,9.30
2018-01-10T22:31:31.054Z,9.97
2018-01-10T22:33:58.533Z,9.33
2018-01-10T22:36:26.290Z,8.60
2018-01-10T22:38:54.778Z,9.27
2018-01-10T22:41:22.327Z,9.10
2018-01-10T22:43:50.983Z,9.33
2018-01-10T22:46:18.428Z,9.60
2018-01-10T22:48:45.942Z,9.90
2018-01-10T22:51:13.463Z,9.07
2018-01-10T22:53:40.972Z,8.83
2018-01-10T22:56:08.522Z,9.60
2018-01-10T22:58:36.019Z,10.03
2018-01-10T23:01:03.766Z,9.83
2018-01-10T23:03:31.336Z,9.00
2018-01-10T23:05:58.840Z,9.00
2018-01-10T23:08:26.342Z,9.50
2018-01-10T23:10:54.603Z,8.43
2018-01-10T23:13:22.127Z,10.20
2018-01-10T23:15:49.620Z,7.83
2018-01-10T23:18:17.169Z,8.97
2018-01-10T23:20:44.641Z,7.70
2018-01-10T23:23:12.066Z,9.93
2018-01-10T23:25:39.559Z,8.80
2018-01-10T23:28:07.042Z,8.10
2018-01-10T23:30:34.581Z,8.33
2018-01-10T23:33:02.033Z,8.10
2018-01-10T23:35:29.550Z,9.30
2018-01-10T23:37:57.818Z,8.60
2018-01-10T23:40:25.285Z,8.90
2018-01-10T23:42:52.754Z,9.23
2018-01-10T23:45:21.004Z,8.23
2018-01-10T23:47:49.257Z,8.57
2018-01-10T23:50:16.732Z,9.63
2018-01-10T23:52:44.319Z,7.90
2018-01-10T23:55:12.518Z,9.13
2018-01-10T23:57:40.003Z,7.90
